sensor_id;sensor_type;location;lat;lon;timestamp;temperature;humidity
44729;DHT22;30457;53.590;9.922;2024-01-30T00:02:23;9.00;56.00
44729;DHT22;30457;53.590;9.922;2024-01-30T00:06:50;9.00;56.10
44729;DHT22;30457;53.590;9.922;2024-01-30T00:11:16;9.00;56.20
44729;DHT22;30457;53.590;9.922;2024-01-30T00:15:41;9.00;56.30
44729;DHT22;30457;53.590;9.922;2024-01-30T00:20:07;8.90;56.40
44729;DHT22;30457;53.590;9.922;2024-01-30T00:24:34;8.90;56.60
44729;DHT22;30457;53.590;9.922;2024-01-30T00:29:00;8.90;56.40
44729;DHT22;30457;53.590;9.922;2024-01-30T00:33:25;8.80;56.40
44729;DHT22;30457;53.590;9.922;2024-01-30T00:37:51;8.80;56.50
44729;DHT22;30457;53.590;9.922;2024-01-30T00:42:16;8.80;56.50
44729;DHT22;30457;53.590;9.922;2024-01-30T00:46:42;8.80;56.50
44729;DHT22;30457;53.590;9.922;2024-01-30T00:51:08;8.70;56.50
44729;DHT22;30457;53.590;9.922;2024-01-30T00:55:33;8.70;56.50
44729;DHT22;30457;53.590;9.922;2024-01-30T00:59:59;8.70;56.60
44729;DHT22;30457;53.590;9.922;2024-01-30T01:04:24;8.60;56.60
44729;DHT22;30457;53.590;9.922;2024-01-30T01:08:50;8.60;56.70
44729;DHT22;30457;53.590;9.922;2024-01-30T01:13:15;8.50;56.70
44729;DHT22;30457;53.590;9.922;2024-01-30T01:17:41;8.50;56.70
44729;DHT22;30457;53.590;9.922;2024-01-30T01:22:06;8.50;56.80
44729;DHT22;30457;53.590;9.922;2024-01-30T01:26:32;8.50;56.90
44729;DHT22;30457;53.590;9.922;2024-01-30T01:30:57;8.40;56.90
44729;DHT22;30457;53.590;9.922;2024-01-30T01:35:30;8.40;56.80
44729;DHT22;30457;53.590;9.922;2024-01-30T01:39:55;8.40;56.90
44729;DHT22;30457;53.590;9.922;2024-01-30T01:44:21;8.40;57.10
44729;DHT22;30457;53.590;9.922;2024-01-30T01:48:46;8.30;57.00
44729;DHT22;30457;53.590;9.922;2024-01-30T01:53:12;8.30;56.90
44729;DHT22;30457;53.590;9.922;2024-01-30T01:57:39;8.30;57.00
44729;DHT22;30457;53.590;9.922;2024-01-30T02:02:06;8.30;57.10
44729;DHT22;30457;53.590;9.922;2024-01-30T02:06:34;8.30;57.20
44729;DHT22;30457;53.590;9.922;2024-01-30T02:11:01;8.30;57.40
44729;DHT22;30457;53.590;9.922;2024-01-30T02:15:26;8.30;57.40
44729;DHT22;30457;53.590;9.922;2024-01-30T02:19:52;8.30;57.40
44729;DHT22;30457;53.590;9.922;2024-01-30T02:24:18;8.30;57.30
44729;DHT22;30457;53.590;9.922;2024-01-30T02:28:44;8.30;57.30
44729;DHT22;30457;53.590;9.922;2024-01-30T02:33:09;8.30;57.40
44729;DHT22;30457;53.590;9.922;2024-01-30T02:37:35;8.30;57.50
44729;DHT22;30457;53.590;9.922;2024-01-30T02:42:00;8.30;57.60
44729;DHT22;30457;53.590;9.922;2024-01-30T02:46:26;8.30;57.70
44729;DHT22;30457;53.590;9.922;2024-01-30T02:50:51;8.30;57.70
44729;DHT22;30457;53.590;9.922;2024-01-30T02:55:17;8.30;57.70
44729;DHT22;30457;53.590;9.922;2024-01-30T02:59:45;8.30;57.70
44729;DHT22;30457;53.590;9.922;2024-01-30T03:04:11;8.40;57.50
44729;DHT22;30457;53.590;9.922;2024-01-30T03:08:37;8.30;57.50
44729;DHT22;30457;53.590;9.922;2024-01-30T03:13:02;8.30;57.40
44729;DHT22;30457;53.590;9.922;2024-01-30T03:17:28;8.30;57.40
44729;DHT22;30457;53.590;9.922;2024-01-30T03:21:54;8.30;57.30
44729;DHT22;30457;53.590;9.922;2024-01-30T03:26:19;8.20;57.30
44729;DHT22;30457;53.590;9.922;2024-01-30T03:30:45;8.20;57.20
44729;DHT22;30457;53.590;9.922;2024-01-30T03:35:10;8.20;57.20
44729;DHT22;30457;53.590;9.922;2024-01-30T03:39:36;8.10;57.20
44729;DHT22;30457;53.590;9.922;2024-01-30T03:44:02;8.10;57.20
44729;DHT22;30457;53.590;9.922;2024-01-30T03:48:28;8.10;57.20
44729;DHT22;30457;53.590;9.922;2024-01-30T03:52:54;8.00;57.10
44729;DHT22;30457;53.590;9.922;2024-01-30T03:57:19;8.00;57.20
44729;DHT22;30457;53.590;9.922;2024-01-30T04:01:46;7.90;57.30
44729;DHT22;30457;53.590;9.922;2024-01-30T04:06:12;7.90;57.40
44729;DHT22;30457;53.590;9.922;2024-01-30T04:10:37;7.90;57.50
44729;DHT22;30457;53.590;9.922;2024-01-30T04:15:03;7.90;57.60
44729;DHT22;30457;53.590;9.922;2024-01-30T04:19:29;7.80;57.60
44729;DHT22;30457;53.590;9.922;2024-01-30T04:23:54;7.80;57.50
44729;DHT22;30457;53.590;9.922;2024-01-30T04:28:20;7.70;57.20
44729;DHT22;30457;53.590;9.922;2024-01-30T04:32:46;7.70;57.30
44729;DHT22;30457;53.590;9.922;2024-01-30T04:37:11;7.70;57.40
44729;DHT22;30457;53.590;9.922;2024-01-30T04:41:37;7.70;57.50
44729;DHT22;30457;53.590;9.922;2024-01-30T04:46:02;7.60;57.50
44729;DHT22;30457;53.590;9.922;2024-01-30T04:50:28;7.60;57.70
44729;DHT22;30457;53.590;9.922;2024-01-30T04:54:53;7.60;57.70
44729;DHT22;30457;53.590;9.922;2024-01-30T04:59:19;7.50;57.70
44729;DHT22;30457;53.590;9.922;2024-01-30T05:03:44;7.50;57.80
44729;DHT22;30457;53.590;9.922;2024-01-30T05:08:10;7.50;58.00
44729;DHT22;30457;53.590;9.922;2024-01-30T05:12:36;7.50;58.10
44729;DHT22;30457;53.590;9.922;2024-01-30T05:17:02;7.50;58.20
44729;DHT22;30457;53.590;9.922;2024-01-30T05:21:28;7.50;58.30
44729;DHT22;30457;53.590;9.922;2024-01-30T05:25:54;7.50;58.50
44729;DHT22;30457;53.590;9.922;2024-01-30T05:30:20;7.50;58.50
44729;DHT22;30457;53.590;9.922;2024-01-30T05:34:45;7.50;58.60
44729;DHT22;30457;53.590;9.922;2024-01-30T05:39:11;7.50;58.70
44729;DHT22;30457;53.590;9.922;2024-01-30T05:43:36;7.50;58.60
44729;DHT22;30457;53.590;9.922;2024-01-30T05:48:02;7.50;58.60
44729;DHT22;30457;53.590;9.922;2024-01-30T05:52:27;7.50;58.60
44729;DHT22;30457;53.590;9.922;2024-01-30T05:56:53;7.50;58.70
44729;DHT22;30457;53.590;9.922;2024-01-30T06:01:19;7.50;58.90
44729;DHT22;30457;53.590;9.922;2024-01-30T06:05:44;7.50;58.90
44729;DHT22;30457;53.590;9.922;2024-01-30T06:10:10;7.60;58.90
44729;DHT22;30457;53.590;9.922;2024-01-30T06:14:36;7.60;59.00
44729;DHT22;30457;53.590;9.922;2024-01-30T06:19:02;7.60;59.00
44729;DHT22;30457;53.590;9.922;2024-01-30T06:23:27;7.60;59.20
44729;DHT22;30457;53.590;9.922;2024-01-30T06:27:53;7.60;59.40
44729;DHT22;30457;53.590;9.922;2024-01-30T06:32:19;7.70;59.70
44729;DHT22;30457;53.590;9.922;2024-01-30T06:36:44;7.70;59.70
44729;DHT22;30457;53.590;9.922;2024-01-30T06:41:10;7.70;59.60
44729;DHT22;30457;53.590;9.922;2024-01-30T06:45:35;7.80;59.60
44729;DHT22;30457;53.590;9.922;2024-01-30T06:50:01;7.80;59.60
44729;DHT22;30457;53.590;9.922;2024-01-30T06:54:28;7.90;59.70
44729;DHT22;30457;53.590;9.922;2024-01-30T06:58:54;7.90;59.70
44729;DHT22;30457;53.590;9.922;2024-01-30T07:03:19;8.00;59.80
44729;DHT22;30457;53.590;9.922;2024-01-30T07:07:45;8.00;59.70
44729;DHT22;30457;53.590;9.922;2024-01-30T07:12:11;8.00;59.60
44729;DHT22;30457;53.590;9.922;2024-01-30T07:16:36;8.00;59.80
44729;DHT22;30457;53.590;9.922;2024-01-30T07:21:02;8.00;59.80
44729;DHT22;30457;53.590;9.922;2024-01-30T07:25:27;8.10;59.50
44729;DHT22;30457;53.590;9.922;2024-01-30T07:29:55;8.10;59.60
44729;DHT22;30457;53.590;9.922;2024-01-30T07:34:20;8.10;59.70
44729;DHT22;30457;53.590;9.922;2024-01-30T07:38:46;8.10;59.80
44729;DHT22;30457;53.590;9.922;2024-01-30T07:43:12;8.10;59.80
44729;DHT22;30457;53.590;9.922;2024-01-30T07:47:37;8.10;59.90
44729;DHT22;30457;53.590;9.922;2024-01-30T07:52:03;8.20;60.10
44729;DHT22;30457;53.590;9.922;2024-01-30T07:56:29;8.20;60.20
44729;DHT22;30457;53.590;9.922;2024-01-30T08:00:54;8.20;60.30
44729;DHT22;30457;53.590;9.922;2024-01-30T08:05:22;8.30;60.30
44729;DHT22;30457;53.590;9.922;2024-01-30T08:09:48;8.40;60.50
44729;DHT22;30457;53.590;9.922;2024-01-30T08:14:14;8.40;60.50
44729;DHT22;30457;53.590;9.922;2024-01-30T08:18:43;8.50;60.60
44729;DHT22;30457;53.590;9.922;2024-01-30T08:23:08;8.60;60.70
44729;DHT22;30457;53.590;9.922;2024-01-30T08:27:34;8.60;60.80
44729;DHT22;30457;53.590;9.922;2024-01-30T08:32:00;8.70;60.90
44729;DHT22;30457;53.590;9.922;2024-01-30T08:36:28;8.80;60.80
44729;DHT22;30457;53.590;9.922;2024-01-30T08:40:55;8.90;61.10
44729;DHT22;30457;53.590;9.922;2024-01-30T08:45:23;8.90;61.00
44729;DHT22;30457;53.590;9.922;2024-01-30T08:49:49;9.00;61.00
44729;DHT22;30457;53.590;9.922;2024-01-30T08:54:14;9.10;60.90
44729;DHT22;30457;53.590;9.922;2024-01-30T08:58:40;9.10;60.90
44729;DHT22;30457;53.590;9.922;2024-01-30T09:03:05;9.30;61.00
44729;DHT22;30457;53.590;9.922;2024-01-30T09:07:31;9.30;60.90
44729;DHT22;30457;53.590;9.922;2024-01-30T09:11:56;9.40;60.80
44729;DHT22;30457;53.590;9.922;2024-01-30T09:16:27;9.50;61.20
44729;DHT22;30457;53.590;9.922;2024-01-30T09:20:54;9.50;60.60
44729;DHT22;30457;53.590;9.922;2024-01-30T09:25:19;9.60;60.60
44729;DHT22;30457;53.590;9.922;2024-01-30T09:29:45;9.70;60.60
44729;DHT22;30457;53.590;9.922;2024-01-30T09:34:10;9.80;60.50
44729;DHT22;30457;53.590;9.922;2024-01-30T09:38:36;9.80;60.30
44729;DHT22;30457;53.590;9.922;2024-01-30T09:43:01;9.90;60.30
44729;DHT22;30457;53.590;9.922;2024-01-30T09:47:27;10.00;60.20
44729;DHT22;30457;53.590;9.922;2024-01-30T09:51:53;10.00;60.00
44729;DHT22;30457;53.590;9.922;2024-01-30T09:56:19;10.10;60.00
44729;DHT22;30457;53.590;9.922;2024-01-30T10:00:45;10.20;60.30
44729;DHT22;30457;53.590;9.922;2024-01-30T10:05:11;10.30;60.30
44729;DHT22;30457;53.590;9.922;2024-01-30T10:09:40;10.40;60.30
44729;DHT22;30457;53.590;9.922;2024-01-30T10:14:06;10.50;60.20
44729;DHT22;30457;53.590;9.922;2024-01-30T10:18:31;10.60;60.20
44729;DHT22;30457;53.590;9.922;2024-01-30T10:22:57;10.70;60.10
44729;DHT22;30457;53.590;9.922;2024-01-30T10:27:26;10.80;60.00
44729;DHT22;30457;53.590;9.922;2024-01-30T10:32:02;10.90;60.00
44729;DHT22;30457;53.590;9.922;2024-01-30T10:36:29;11.00;60.10
44729;DHT22;30457;53.590;9.922;2024-01-30T10:41:02;11.10;59.80
44729;DHT22;30457;53.590;9.922;2024-01-30T10:45:28;11.30;59.70
44729;DHT22;30457;53.590;9.922;2024-01-30T10:49:55;11.40;59.50
44729;DHT22;30457;53.590;9.922;2024-01-30T10:54:21;11.40;59.30
44729;DHT22;30457;53.590;9.922;2024-01-30T10:58:51;11.50;59.20
44729;DHT22;30457;53.590;9.922;2024-01-30T11:03:20;11.60;58.90
44729;DHT22;30457;53.590;9.922;2024-01-30T11:07:46;11.70;59.00
44729;DHT22;30457;53.590;9.922;2024-01-30T11:12:12;11.80;59.10
44729;DHT22;30457;53.590;9.922;2024-01-30T11:16:40;11.90;58.90
44729;DHT22;30457;53.590;9.922;2024-01-30T11:21:05;12.00;58.80
44729;DHT22;30457;53.590;9.922;2024-01-30T11:25:31;12.10;58.80
44729;DHT22;30457;53.590;9.922;2024-01-30T11:30:04;12.20;58.90
44729;DHT22;30457;53.590;9.922;2024-01-30T11:34:30;12.20;58.70
44729;DHT22;30457;53.590;9.922;2024-01-30T11:38:57;12.30;58.60
44729;DHT22;30457;53.590;9.922;2024-01-30T11:43:23;12.40;58.60
44729;DHT22;30457;53.590;9.922;2024-01-30T11:47:49;12.40;58.50
44729;DHT22;30457;53.590;9.922;2024-01-30T11:52:15;12.50;58.50
44729;DHT22;30457;53.590;9.922;2024-01-30T11:56:42;12.60;58.60
44729;DHT22;30457;53.590;9.922;2024-01-30T12:01:08;12.70;58.60
44729;DHT22;30457;53.590;9.922;2024-01-30T12:05:34;12.70;58.40
44729;DHT22;30457;53.590;9.922;2024-01-30T12:10:00;12.80;58.40
44729;DHT22;30457;53.590;9.922;2024-01-30T12:14:26;12.80;58.30
44729;DHT22;30457;53.590;9.922;2024-01-30T12:19:00;12.90;58.20
44729;DHT22;30457;53.590;9.922;2024-01-30T12:23:27;13.00;58.10
44729;DHT22;30457;53.590;9.922;2024-01-30T12:27:53;13.00;58.00
44729;DHT22;30457;53.590;9.922;2024-01-30T12:32:19;13.00;57.90
44729;DHT22;30457;53.590;9.922;2024-01-30T12:36:45;13.10;57.90
44729;DHT22;30457;53.590;9.922;2024-01-30T12:41:10;13.10;57.80
44729;DHT22;30457;53.590;9.922;2024-01-30T12:45:36;13.20;57.80
44729;DHT22;30457;53.590;9.922;2024-01-30T12:50:02;13.20;57.80
44729;DHT22;30457;53.590;9.922;2024-01-30T12:54:28;13.20;57.70
44729;DHT22;30457;53.590;9.922;2024-01-30T12:58:54;13.30;57.70
44729;DHT22;30457;53.590;9.922;2024-01-30T13:03:19;13.30;57.60
44729;DHT22;30457;53.590;9.922;2024-01-30T13:07:45;13.30;57.60
44729;DHT22;30457;53.590;9.922;2024-01-30T13:12:10;13.40;57.60
44729;DHT22;30457;53.590;9.922;2024-01-30T13:16:36;13.40;57.60
44729;DHT22;30457;53.590;9.922;2024-01-30T13:21:02;13.40;57.60
44729;DHT22;30457;53.590;9.922;2024-01-30T13:25:28;13.40;57.60
44729;DHT22;30457;53.590;9.922;2024-01-30T13:29:54;13.40;57.60
44729;DHT22;30457;53.590;9.922;2024-01-30T13:34:19;13.40;57.60
44729;DHT22;30457;53.590;9.922;2024-01-30T13:38:45;13.40;57.60
44729;DHT22;30457;53.590;9.922;2024-01-30T13:43:10;13.40;57.70
44729;DHT22;30457;53.590;9.922;2024-01-30T13:47:36;13.40;57.80
44729;DHT22;30457;53.590;9.922;2024-01-30T13:52:02;13.40;57.90
44729;DHT22;30457;53.590;9.922;2024-01-30T13:56:29;13.40;58.00
44729;DHT22;30457;53.590;9.922;2024-01-30T14:00:55;13.40;58.00
44729;DHT22;30457;53.590;9.922;2024-01-30T14:05:21;13.40;58.10
44729;DHT22;30457;53.590;9.922;2024-01-30T14:09:48;13.40;58.00
44729;DHT22;30457;53.590;9.922;2024-01-30T14:14:13;13.50;58.00
44729;DHT22;30457;53.590;9.922;2024-01-30T14:18:39;13.50;58.10
44729;DHT22;30457;53.590;9.922;2024-01-30T14:23:06;13.50;58.10
44729;DHT22;30457;53.590;9.922;2024-01-30T14:27:32;13.50;58.20
44729;DHT22;30457;53.590;9.922;2024-01-30T14:31:58;13.50;58.20
44729;DHT22;30457;53.590;9.922;2024-01-30T14:36:24;13.50;58.20
44729;DHT22;30457;53.590;9.922;2024-01-30T14:40:53;13.50;58.20
44729;DHT22;30457;53.590;9.922;2024-01-30T14:45:18;13.60;58.20
44729;DHT22;30457;53.590;9.922;2024-01-30T14:49:44;13.60;58.30
44729;DHT22;30457;53.590;9.922;2024-01-30T14:54:10;13.60;58.30
44729;DHT22;30457;53.590;9.922;2024-01-30T14:58:37;13.60;58.30
44729;DHT22;30457;53.590;9.922;2024-01-30T15:03:02;13.60;58.30
44729;DHT22;30457;53.590;9.922;2024-01-30T15:07:28;13.70;58.30
44729;DHT22;30457;53.590;9.922;2024-01-30T15:11:54;13.70;58.30
44729;DHT22;30457;53.590;9.922;2024-01-30T15:16:20;13.70;58.30
44729;DHT22;30457;53.590;9.922;2024-01-30T15:20:45;13.70;58.30
44729;DHT22;30457;53.590;9.922;2024-01-30T15:25:11;13.70;58.30
44729;DHT22;30457;53.590;9.922;2024-01-30T15:29:36;13.70;58.30
44729;DHT22;30457;53.590;9.922;2024-01-30T15:34:02;13.70;58.30
44729;DHT22;30457;53.590;9.922;2024-01-30T15:38:28;13.70;58.30
44729;DHT22;30457;53.590;9.922;2024-01-30T15:42:54;13.70;58.30
44729;DHT22;30457;53.590;9.922;2024-01-30T15:47:19;13.80;58.30
44729;DHT22;30457;53.590;9.922;2024-01-30T15:51:45;13.70;58.20
44729;DHT22;30457;53.590;9.922;2024-01-30T15:56:11;13.80;58.30
44729;DHT22;30457;53.590;9.922;2024-01-30T16:00:36;13.70;58.40
44729;DHT22;30457;53.590;9.922;2024-01-30T16:05:02;13.70;58.30
44729;DHT22;30457;53.590;9.922;2024-01-30T16:09:28;13.70;58.40
44729;DHT22;30457;53.590;9.922;2024-01-30T16:13:53;13.70;58.40
44729;DHT22;30457;53.590;9.922;2024-01-30T16:18:19;13.70;58.40
44729;DHT22;30457;53.590;9.922;2024-01-30T16:22:44;13.70;58.40
44729;DHT22;30457;53.590;9.922;2024-01-30T16:27:10;13.60;58.40
44729;DHT22;30457;53.590;9.922;2024-01-30T16:31:36;13.60;59.10
44729;DHT22;30457;53.590;9.922;2024-01-30T16:36:01;13.60;58.70
44729;DHT22;30457;53.590;9.922;2024-01-30T16:40:27;13.60;58.70
44729;DHT22;30457;53.590;9.922;2024-01-30T16:44:52;13.60;58.70
44729;DHT22;30457;53.590;9.922;2024-01-30T16:49:18;13.60;58.70
44729;DHT22;30457;53.590;9.922;2024-01-30T16:53:44;13.70;58.80
44729;DHT22;30457;53.590;9.922;2024-01-30T16:58:09;13.70;58.80
44729;DHT22;30457;53.590;9.922;2024-01-30T17:02:36;13.70;58.90
44729;DHT22;30457;53.590;9.922;2024-01-30T17:07:02;13.70;58.90
44729;DHT22;30457;53.590;9.922;2024-01-30T17:11:29;13.70;58.90
44729;DHT22;30457;53.590;9.922;2024-01-30T17:15:54;13.70;59.00
44729;DHT22;30457;53.590;9.922;2024-01-30T17:20:20;13.70;59.00
44729;DHT22;30457;53.590;9.922;2024-01-30T17:24:45;13.70;59.00
44729;DHT22;30457;53.590;9.922;2024-01-30T17:29:11;13.70;58.90
44729;DHT22;30457;53.590;9.922;2024-01-30T17:33:39;13.80;59.00
44729;DHT22;30457;53.590;9.922;2024-01-30T17:38:07;13.80;59.00
44729;DHT22;30457;53.590;9.922;2024-01-30T17:42:32;13.80;59.00
44729;DHT22;30457;53.590;9.922;2024-01-30T17:46:58;13.80;58.90
44729;DHT22;30457;53.590;9.922;2024-01-30T17:51:24;13.80;58.70
44729;DHT22;30457;53.590;9.922;2024-01-30T17:55:49;13.80;58.70
44729;DHT22;30457;53.590;9.922;2024-01-30T18:00:15;13.80;58.60
44729;DHT22;30457;53.590;9.922;2024-01-30T18:04:41;13.80;58.50
44729;DHT22;30457;53.590;9.922;2024-01-30T18:09:07;13.80;58.40
44729;DHT22;30457;53.590;9.922;2024-01-30T18:13:32;13.90;58.30
44729;DHT22;30457;53.590;9.922;2024-01-30T18:17:58;13.90;58.10
44729;DHT22;30457;53.590;9.922;2024-01-30T18:22:24;13.90;57.90
44729;DHT22;30457;53.590;9.922;2024-01-30T18:26:50;13.90;57.70
44729;DHT22;30457;53.590;9.922;2024-01-30T18:31:16;13.90;57.60
44729;DHT22;30457;53.590;9.922;2024-01-30T18:35:42;13.90;57.50
44729;DHT22;30457;53.590;9.922;2024-01-30T18:40:07;13.90;57.20
44729;DHT22;30457;53.590;9.922;2024-01-30T18:44:33;13.90;57.20
44729;DHT22;30457;53.590;9.922;2024-01-30T18:48:59;13.90;57.20
44729;DHT22;30457;53.590;9.922;2024-01-30T18:53:25;13.90;57.00
44729;DHT22;30457;53.590;9.922;2024-01-30T18:57:50;13.90;57.00
44729;DHT22;30457;53.590;9.922;2024-01-30T19:02:16;13.80;56.80
44729;DHT22;30457;53.590;9.922;2024-01-30T19:06:41;13.80;56.90
44729;DHT22;30457;53.590;9.922;2024-01-30T19:11:07;13.80;56.80
44729;DHT22;30457;53.590;9.922;2024-01-30T19:15:41;13.80;56.70
44729;DHT22;30457;53.590;9.922;2024-01-30T19:20:09;13.80;56.70
44729;DHT22;30457;53.590;9.922;2024-01-30T19:24:35;13.80;56.80
44729;DHT22;30457;53.590;9.922;2024-01-30T19:29:00;13.80;56.80
44729;DHT22;30457;53.590;9.922;2024-01-30T19:33:27;13.70;56.70
44729;DHT22;30457;53.590;9.922;2024-01-30T19:37:52;13.70;56.60
44729;DHT22;30457;53.590;9.922;2024-01-30T19:42:18;13.70;56.70
44729;DHT22;30457;53.590;9.922;2024-01-30T19:46:44;13.70;56.80
44729;DHT22;30457;53.590;9.922;2024-01-30T19:51:09;13.70;56.80
44729;DHT22;30457;53.590;9.922;2024-01-30T19:55:35;13.60;56.80
44729;DHT22;30457;53.590;9.922;2024-01-30T20:00:00;13.60;56.80
44729;DHT22;30457;53.590;9.922;2024-01-30T20:04:30;13.60;57.00
44729;DHT22;30457;53.590;9.922;2024-01-30T20:08:55;13.50;57.20
44729;DHT22;30457;53.590;9.922;2024-01-30T20:13:21;13.50;57.30
44729;DHT22;30457;53.590;9.922;2024-01-30T20:17:47;13.40;57.50
44729;DHT22;30457;53.590;9.922;2024-01-30T20:22:13;13.40;57.60
44729;DHT22;30457;53.590;9.922;2024-01-30T20:26:39;13.30;58.00
44729;DHT22;30457;53.590;9.922;2024-01-30T20:31:04;13.30;58.00
44729;DHT22;30457;53.590;9.922;2024-01-30T20:35:31;13.20;58.20
44729;DHT22;30457;53.590;9.922;2024-01-30T20:39:56;13.20;58.20
44729;DHT22;30457;53.590;9.922;2024-01-30T20:44:22;13.10;58.60
44729;DHT22;30457;53.590;9.922;2024-01-30T20:48:48;13.10;58.50
44729;DHT22;30457;53.590;9.922;2024-01-30T20:53:13;13.10;58.60
44729;DHT22;30457;53.590;9.922;2024-01-30T20:57:39;13.00;58.80
44729;DHT22;30457;53.590;9.922;2024-01-30T21:02:04;13.00;59.00
44729;DHT22;30457;53.590;9.922;2024-01-30T21:06:30;13.00;58.90
44729;DHT22;30457;53.590;9.922;2024-01-30T21:10:55;12.90;59.10
44729;DHT22;30457;53.590;9.922;2024-01-30T21:15:21;12.90;59.10
44729;DHT22;30457;53.590;9.922;2024-01-30T21:19:47;12.80;59.30
44729;DHT22;30457;53.590;9.922;2024-01-30T21:24:12;12.80;59.40
44729;DHT22;30457;53.590;9.922;2024-01-30T21:28:38;12.70;59.20
44729;DHT22;30457;53.590;9.922;2024-01-30T21:33:04;12.60;59.30
44729;DHT22;30457;53.590;9.922;2024-01-30T21:37:29;12.60;59.10
44729;DHT22;30457;53.590;9.922;2024-01-30T21:41:55;12.50;59.20
44729;DHT22;30457;53.590;9.922;2024-01-30T21:46:25;12.50;59.30
44729;DHT22;30457;53.590;9.922;2024-01-30T21:50:50;12.40;59.20
44729;DHT22;30457;53.590;9.922;2024-01-30T21:55:16;12.40;59.00
44729;DHT22;30457;53.590;9.922;2024-01-30T21:59:41;12.40;59.00
44729;DHT22;30457;53.590;9.922;2024-01-30T22:04:07;12.30;58.90
44729;DHT22;30457;53.590;9.922;2024-01-30T22:08:33;12.30;58.90
44729;DHT22;30457;53.590;9.922;2024-01-30T22:12:58;12.20;58.90
44729;DHT22;30457;53.590;9.922;2024-01-30T22:17:24;12.20;59.00
44729;DHT22;30457;53.590;9.922;2024-01-30T22:21:49;12.10;59.10
44729;DHT22;30457;53.590;9.922;2024-01-30T22:26:15;12.10;59.20
44729;DHT22;30457;53.590;9.922;2024-01-30T22:30:41;12.10;59.70
44729;DHT22;30457;53.590;9.922;2024-01-30T22:35:06;12.00;59.70
44729;DHT22;30457;53.590;9.922;2024-01-30T22:39:35;12.00;60.10
44729;DHT22;30457;53.590;9.922;2024-01-30T22:44:01;11.90;60.10
44729;DHT22;30457;53.590;9.922;2024-01-30T22:48:26;11.80;60.20
44729;DHT22;30457;53.590;9.922;2024-01-30T22:52:52;11.70;60.00
44729;DHT22;30457;53.590;9.922;2024-01-30T22:57:17;11.60;59.80
44729;DHT22;30457;53.590;9.922;2024-01-30T23:01:45;11.60;60.00
44729;DHT22;30457;53.590;9.922;2024-01-30T23:06:11;11.50;60.20
44729;DHT22;30457;53.590;9.922;2024-01-30T23:10:38;11.40;60.50
44729;DHT22;30457;53.590;9.922;2024-01-30T23:15:04;11.30;60.40
44729;DHT22;30457;53.590;9.922;2024-01-30T23:19:31;11.30;60.50
44729;DHT22;30457;53.590;9.922;2024-01-30T23:23:57;11.20;61.00
44729;DHT22;30457;53.590;9.922;2024-01-30T23:28:23;11.10;61.20
44729;DHT22;30457;53.590;9.922;2024-01-30T23:32:48;11.00;61.40
44729;DHT22;30457;53.590;9.922;2024-01-30T23:37:14;10.90;61.40
44729;DHT22;30457;53.590;9.922;2024-01-30T23:41:40;10.90;61.70
44729;DHT22;30457;53.590;9.922;2024-01-30T23:46:05;10.80;61.60
44729;DHT22;30457;53.590;9.922;2024-01-30T23:50:31;10.80;61.70
44729;DHT22;30457;53.590;9.922;2024-01-30T23:54:56;10.70;61.60
44729;DHT22;30457;53.590;9.922;2024-01-30T23:59:22;10.70;61.80
